Time;durP1;ratioP1;P1;durP2;ratioP2;P2;SDS_P1;SDS_P2;PMS_P1;PMS_P2;Temp;Humidity;BMP_temperature;BMP_pressure;BME280_temperature;BME280_humidity;BME280_pressure;Samples;Min_cycle;Max_cycle;Signal;HPM_P1;HPM_P2
2022/03/07 00:01:18;;;;;;;8.75;4.65;;;;;;;3.73;44.33;102713.13;5012248;28;124720;-62
2022/03/07 00:03:45;;;;;;;7.88;4.57;;;;;;;3.69;44.21;102707.84;5013915;28;108997;-61
2022/03/07 00:06:13;;;;;;;9.02;4.75;;;;;;;3.65;44.39;102711.28;5015874;28;109031;-61
2022/03/07 00:08:40;;;;;;;9.35;5.20;;;;;;;3.62;44.28;102706.00;5011356;28;123823;-61
2022/03/07 00:11:07;;;;;;;8.55;4.82;;;;;;;3.59;44.47;102711.19;5012806;28;124206;-61
2022/03/07 00:13:35;;;;;;;8.65;4.82;;;;;;;3.55;44.45;102709.41;5014788;28;109582;-61
2022/03/07 00:16:03;;;;;;;7.45;4.47;;;;;;;3.52;44.24;102698.88;5014944;28;108943;-61
2022/03/07 00:18:30;;;;;;;7.90;4.40;;;;;;;3.49;44.48;102714.56;5014361;28;123842;-61
2022/03/07 00:20:57;;;;;;;10.88;4.53;;;;;;;3.47;44.48;102711.03;5014298;28;123852;-61
2022/03/07 00:23:24;;;;;;;8.77;4.90;;;;;;;3.44;44.45;102710.97;5013793;28;110166;-62
2022/03/07 00:25:52;;;;;;;8.65;4.57;;;;;;;3.41;44.61;102709.22;5013424;28;110146;-61
2022/03/07 00:28:19;;;;;;;8.40;4.85;;;;;;;3.37;44.59;102709.13;5014037;28;124143;-61
2022/03/07 00:30:46;;;;;;;12.43;5.30;;;;;;;3.33;44.55;102702.09;5013762;28;124952;-61
2022/03/07 00:33:16;;;;;;;9.68;5.18;;;;;;;3.30;44.47;102714.28;5015054;28;109173;-61
2022/03/07 00:35:44;;;;;;;7.95;4.60;;;;;;;3.27;44.62;102713.34;5011516;28;109514;-61
2022/03/07 00:38:11;;;;;;;8.63;4.80;;;;;;;3.23;44.59;102717.66;5013402;28;123659;-61
2022/03/07 00:40:39;;;;;;;8.45;4.80;;;;;;;3.19;44.56;102715.84;5013118;28;124069;-61
2022/03/07 00:43:10;;;;;;;6.93;4.60;;;;;;;3.14;44.58;102722.72;5013731;28;111234;-61
2022/03/07 00:45:39;;;;;;;9.55;4.90;;;;;;;3.11;44.65;102728.81;5013660;28;108061;-61
2022/03/07 00:48:10;;;;;;;7.75;4.85;;;;;;;3.08;44.63;102723.53;5011674;28;124182;-61
2022/03/07 00:50:42;;;;;;;7.47;4.70;;;;;;;3.06;44.67;102726.97;5009856;28;123910;-61
2022/03/07 00:53:16;;;;;;;8.50;4.55;;;;;;;3.02;44.94;102727.78;5013677;28;109294;-61
2022/03/07 00:55:44;;;;;;;8.80;4.93;;;;;;;2.98;44.72;102726.84;5014328;28;108742;-61
2022/03/07 00:58:13;;;;;;;8.70;5.18;;;;;;;2.96;44.73;102727.66;5013726;28;123361;-61
2022/03/07 01:00:41;;;;;;;10.63;5.80;;;;;;;2.92;44.97;102722.41;5012518;28;123303;-60
2022/03/07 01:03:10;;;;;;;9.65;5.45;;;;;;;2.91;45.01;102731.09;5013348;28;109236;-60
2022/03/07 01:05:39;;;;;;;11.75;6.00;;;;;;;2.89;44.92;102722.34;5011351;28;108691;-60
2022/03/07 01:08:07;;;;;;;7.97;4.75;;;;;;;2.86;44.86;102727.53;5013359;28;123580;-60
2022/03/07 01:10:35;;;;;;;8.75;4.80;;;;;;;2.83;45.01;102726.59;5013740;28;124455;-61
2022/03/07 01:13:04;;;;;;;9.80;4.90;;;;;;;2.82;45.03;102723.06;5013077;28;109309;-60
2022/03/07 01:15:32;;;;;;;9.13;4.90;;;;;;;2.78;44.88;102729.13;5011875;28;110055;-60
2022/03/07 01:17:59;;;;;;;9.55;5.05;;;;;;;2.73;44.95;102726.44;5003815;28;124169;-60
2022/03/07 01:20:27;;;;;;;8.73;4.80;;;;;;;2.68;45.04;102721.97;5010631;28;124706;-60
2022/03/07 01:22:56;;;;;;;10.75;5.05;;;;;;;2.64;45.20;102725.38;5012581;28;108524;-60
2022/03/07 01:25:23;;;;;;;9.15;5.13;;;;;;;2.62;44.96;102724.44;5013020;28;108951;-61
2022/03/07 01:27:50;;;;;;;9.60;5.28;;;;;;;2.60;45.01;102723.53;5012100;28;123109;-60
2022/03/07 01:30:21;;;;;;;10.63;5.00;;;;;;;2.59;45.41;102721.78;5012283;28;123851;-60
2022/03/07 01:32:48;;;;;;;10.05;5.00;;;;;;;2.59;45.49;102721.78;5013257;28;108247;-60
2022/03/07 01:35:16;;;;;;;7.63;4.57;;;;;;;2.57;45.32;102724.38;5013811;28;109014;-60
2022/03/07 01:37:43;;;;;;;9.98;4.63;;;;;;;2.57;45.26;102723.50;5013138;28;124110;-60
2022/03/07 01:40:11;;;;;;;7.70;5.05;;;;;;;2.55;45.45;102725.22;5010680;28;123736;-60
2022/03/07 01:42:39;;;;;;;8.80;4.80;;;;;;;2.53;45.15;102723.44;5012118;28;109393;-60
2022/03/07 01:45:12;;;;;;;8.63;4.93;;;;;;;2.52;45.72;102719.06;5013397;28;108441;-60
2022/03/07 01:47:40;;;;;;;8.68;5.00;;;;;;;2.53;45.52;102723.44;5012544;28;123190;-60
2022/03/07 01:50:13;;;;;;;11.98;5.40;;;;;;;2.51;45.56;102725.16;5010393;28;124095;-60
2022/03/07 01:52:44;;;;;;;14.30;5.53;;;;;;;2.49;45.38;102721.63;5012939;28;108219;-60
2022/03/07 01:55:12;;;;;;;10.35;5.40;;;;;;;2.45;45.45;102714.59;4996690;28;108300;-60
2022/03/07 01:57:47;;;;;;;10.33;5.30;;;;;;;2.42;45.49;102709.28;5012769;28;123225;-60
2022/03/07 02:00:27;;;;;;;13.52;5.88;;;;;;;2.40;45.56;102716.22;5012001;28;123328;-60
2022/03/07 02:02:54;;;;;;;10.20;5.63;;;;;;;2.41;45.57;102717.09;5011965;28;109612;-60
2022/03/07 02:05:29;;;;;;;8.93;5.30;;;;;;;2.40;45.64;102716.22;5013061;28;112246;-60
2022/03/07 02:08:02;;;;;;;11.38;5.25;;;;;;;2.40;45.73;102716.22;5012615;28;123375;-60
2022/03/07 02:10:37;;;;;;;9.45;4.70;;;;;;;2.38;45.68;102717.94;5011873;28;126507;-60
2022/03/07 02:13:16;;;;;;;12.43;5.40;;;;;;;2.37;45.57;102705.69;5012829;28;108281;-60
2022/03/07 02:15:53;;;;;;;11.75;5.43;;;;;;;2.37;45.82;102710.91;5012819;28;111356;-60
2022/03/07 02:18:24;;;;;;;8.38;5.55;;;;;;;2.36;45.58;102709.19;5011968;28;123632;-60
2022/03/07 02:20:58;;;;;;;13.65;5.97;;;;;;;2.35;45.95;102702.16;5010312;28;124077;-60
2022/03/07 02:23:27;;;;;;;11.55;5.68;;;;;;;2.34;45.49;102705.66;5012433;28;109326;-60
2022/03/07 02:25:54;;;;;;;10.98;5.80;;;;;;;2.34;45.75;102705.66;5012255;28;108031;-60
2022/03/07 02:28:22;;;;;;;11.38;5.20;;;;;;;2.33;45.70;102702.13;5009931;28;124237;-60
2022/03/07 02:30:52;;;;;;;9.20;5.40;;;;;;;2.31;45.81;102700.34;5011299;28;122822;-60
2022/03/07 02:33:19;;;;;;;12.75;5.22;;;;;;;2.31;45.81;102705.56;5012443;28;109501;-60
2022/03/07 02:35:47;;;;;;;11.88;5.38;;;;;;;2.31;45.75;102705.56;5012699;28;108175;-60
2022/03/07 02:38:16;;;;;;;9.73;5.25;;;;;;;2.31;45.95;102700.34;4995103;28;123178;-60
2022/03/07 02:40:46;;;;;;;9.98;5.55;;;;;;;2.30;45.76;102711.69;5011581;28;123147;-60
2022/03/07 02:43:19;;;;;;;9.48;5.40;;;;;;;2.30;46.09;102709.06;5012366;28;109233;-60
2022/03/07 02:45:47;;;;;;;9.07;5.25;;;;;;;2.29;45.98;102707.28;5012709;28;108991;-60
2022/03/07 02:48:14;;;;;;;12.43;5.50;;;;;;;2.29;45.86;102702.06;5012202;28;123731;-60
2022/03/07 02:50:45;;;;;;;9.25;5.13;;;;;;;2.29;46.19;102702.06;5010570;28;122907;-60
2022/03/07 02:53:13;;;;;;;10.23;5.13;;;;;;;2.31;46.18;102705.56;5011964;28;109198;-60
2022/03/07 02:55:40;;;;;;;8.60;4.93;;;;;;;2.31;46.16;102705.56;5011246;28;109647;-61
2022/03/07 02:58:08;;;;;;;12.18;5.53;;;;;;;2.30;46.11;102698.59;5012676;28;124845;-60
2022/03/07 03:00:35;;;;;;;10.52;5.40;;;;;;;2.27;46.01;102699.41;5009641;28;124802;-60
2022/03/07 03:03:03;;;;;;;9.90;5.25;;;;;;;2.27;46.09;102704.63;5011656;28;109339;-60
2022/03/07 03:05:30;;;;;;;9.35;5.47;;;;;;;2.27;46.25;102704.63;5013476;28;109102;-60
2022/03/07 03:07:57;;;;;;;9.75;5.18;;;;;;;2.25;46.10;102706.34;5009930;28;124576;-60
2022/03/07 03:10:24;;;;;;;8.98;5.22;;;;;;;2.25;46.27;102705.47;5009474;28;124389;-60
2022/03/07 03:12:52;;;;;;;10.15;5.03;;;;;;;2.24;46.21;102708.91;5011924;28;109127;-60
2022/03/07 03:15:19;;;;;;;7.43;4.80;;;;;;;2.22;46.12;102711.50;4994825;28;109551;-60
2022/03/07 03:17:46;;;;;;;10.60;5.13;;;;;;;2.21;46.31;102711.50;4991054;28;124059;-60
2022/03/07 03:20:15;;;;;;;9.95;5.32;;;;;;;2.20;46.28;102712.34;4989331;28;124196;-60
2022/03/07 03:22:44;;;;;;;9.90;5.40;;;;;;;2.18;45.94;102714.03;4990716;28;109020;-60
2022/03/07 03:25:15;;;;;;;9.25;5.53;;;;;;;2.16;46.30;102715.75;4992039;28;107893;-60
2022/03/07 03:27:42;;;;;;;9.98;5.40;;;;;;;2.12;46.13;102715.66;4991917;28;124195;-60
2022/03/07 03:30:11;;;;;;;10.02;5.40;;;;;;;2.11;46.17;102718.25;4991400;28;124721;-60
2022/03/07 03:32:39;;;;;;;9.10;5.47;;;;;;;2.11;46.42;102710.41;4992804;28;109252;-60
2022/03/07 03:35:06;;;;;;;9.35;5.13;;;;;;;2.09;46.34;102705.16;4990752;28;109327;-60
2022/03/07 03:37:34;;;;;;;8.98;5.60;;;;;;;2.09;46.23;102710.41;4991175;28;124179;-60
2022/03/07 03:40:01;;;;;;;9.45;5.20;;;;;;;2.09;46.48;102710.41;4989015;28;124209;-60
2022/03/07 03:42:28;;;;;;;10.80;5.30;;;;;;;2.09;46.15;102705.16;4991389;28;109424;-60
2022/03/07 03:44:57;;;;;;;10.48;5.68;;;;;;;2.08;46.46;102708.63;4991469;28;110252;-60
2022/03/07 03:47:24;;;;;;;11.73;5.88;;;;;;;2.09;46.16;102719.94;4989809;28;123819;-60
2022/03/07 03:49:51;;;;;;;9.25;5.63;;;;;;;2.06;46.67;102715.56;4989678;28;124237;-60
2022/03/07 03:52:19;;;;;;;10.30;5.40;;;;;;;2.06;46.25;102712.06;4993110;28;109034;-60
2022/03/07 03:54:46;;;;;;;8.40;5.32;;;;;;;2.05;46.45;102713.78;4995382;28;109659;-60
2022/03/07 03:57:13;;;;;;;10.63;5.65;;;;;;;2.03;46.45;102715.47;4991602;28;124452;-60
2022/03/07 03:59:40;;;;;;;11.90;5.80;;;;;;;2.02;46.35;102718.97;4992787;28;123911;-60
2022/03/07 04:02:07;;;;;;;10.65;6.25;;;;;;;2.01;46.43;102722.41;4994552;28;108650;-60
2022/03/07 04:04:35;;;;;;;9.68;5.53;;;;;;;1.99;46.50;102713.66;4995037;28;108569;-60
2022/03/07 04:07:06;;;;;;;11.98;5.95;;;;;;;1.97;46.74;102715.34;4993903;28;123939;-60
2022/03/07 04:09:33;;;;;;;11.50;5.90;;;;;;;1.95;46.50;102717.06;4994631;28;124031;-60
2022/03/07 04:12:01;;;;;;;11.73;5.50;;;;;;;1.93;46.38;102708.31;4992254;28;109371;-60
2022/03/07 04:14:28;;;;;;;9.23;5.30;;;;;;;1.91;46.70;102704.78;4993176;28;109288;-60
2022/03/07 04:16:55;;;;;;;11.52;5.45;;;;;;;1.89;46.32;102701.25;4992695;28;124469;-60
2022/03/07 04:19:25;;;;;;;9.80;5.30;;;;;;;1.87;46.38;102713.41;4992429;28;124044;-60
2022/03/07 04:21:52;;;;;;;8.68;5.20;;;;;;;1.86;46.53;102706.41;4994267;28;109593;-60
2022/03/07 04:24:20;;;;;;;11.35;5.63;;;;;;;1.86;46.58;102711.63;4995946;28;108707;-60
2022/03/07 04:26:47;;;;;;;9.10;5.13;;;;;;;1.84;46.80;102708.13;4994193;28;124832;-60
2022/03/07 04:29:15;;;;;;;10.52;5.68;;;;;;;1.83;46.57;102711.56;4993102;28;124004;-60
2022/03/07 04:31:43;;;;;;;10.95;5.70;;;;;;;1.82;46.82;102709.81;4991614;28;110494;-60
2022/03/07 04:34:13;;;;;;;9.95;5.32;;;;;;;1.82;46.90;102709.81;4995525;28;110122;-60
2022/03/07 04:36:40;;;;;;;10.18;5.50;;;;;;;1.80;46.62;102716.75;4994780;28;123869;-59
2022/03/07 04:39:10;;;;;;;9.70;5.75;;;;;;;1.78;46.90;102714.09;4992409;28;124390;-59
2022/03/07 04:41:39;;;;;;;9.23;5.68;;;;;;;1.78;46.77;102713.22;4992640;28;109145;-61
2022/03/07 04:44:07;;;;;;;12.45;5.95;;;;;;;1.77;46.88;102711.44;4995253;28;109181;-60
2022/03/07 04:46:34;;;;;;;9.25;5.35;;;;;;;1.75;46.75;102708.78;4993884;28;123797;-60
2022/03/07 04:49:02;;;;;;;10.40;5.55;;;;;;;1.74;46.84;102713.13;4992630;28;124007;-60
2022/03/07 04:51:29;;;;;;;11.45;6.22;;;;;;;1.74;46.96;102715.75;4994926;28;109475;-60
2022/03/07 04:53:56;;;;;;;9.18;5.88;;;;;;;1.73;47.05;102711.41;4995336;28;109504;-60
2022/03/07 04:56:23;;;;;;;11.82;6.13;;;;;;;1.74;47.11;102723.59;4992289;28;124077;-60
2022/03/07 04:58:51;;;;;;;12.85;6.20;;;;;;;1.72;46.64;102714.84;4991984;28;124408;-60
2022/03/07 05:01:18;;;;;;;8.90;5.72;;;;;;;1.73;46.81;102706.16;4994309;28;109903;-59
2022/03/07 05:03:45;;;;;;;11.30;6.05;;;;;;;1.72;46.98;102712.22;4994705;28;108772;-60
2022/03/07 05:06:13;;;;;;;9.00;5.43;;;;;;;1.74;46.98;102713.13;4991625;28;124106;-59
2022/03/07 05:08:40;;;;;;;9.98;5.75;;;;;;;1.73;47.15;102716.63;4992139;28;123920;-60
2022/03/07 05:11:07;;;;;;;11.38;6.57;;;;;;;1.73;46.99;102716.63;4991394;28;108999;-60
2022/03/07 05:13:34;;;;;;;13.23;6.38;;;;;;;1.72;47.31;102714.84;4994695;28;109277;-60
2022/03/07 05:16:03;;;;;;;9.52;6.03;;;;;;;1.72;47.00;102709.63;4991665;28;124850;-60
2022/03/07 05:18:30;;;;;;;10.68;6.03;;;;;;;1.73;47.41;102711.41;4993633;28;123351;-60
2022/03/07 05:20:57;;;;;;;12.50;6.07;;;;;;;1.71;47.20;102713.09;4994228;28;109937;-59
2022/03/07 05:23:31;;;;;;;11.30;5.93;;;;;;;1.70;47.02;102711.31;4993841;28;110025;-59
2022/03/07 05:25:58;;;;;;;10.32;6.00;;;;;;;1.70;47.00;102711.31;4992276;28;124408;-60
2022/03/07 05:28:26;;;;;;;10.10;6.05;;;;;;;1.70;47.21;102713.94;4991467;28;124396;-60
2022/03/07 05:30:53;;;;;;;12.75;6.35;;;;;;;1.69;46.92;102709.53;4991676;28;109279;-60
2022/03/07 05:33:20;;;;;;;14.45;6.38;;;;;;;1.68;47.04;102699.09;4993472;28;108891;-60
2022/03/07 05:35:47;;;;;;;11.85;6.13;;;;;;;1.66;46.84;102699.03;4991285;28;124017;-60
2022/03/07 05:38:17;;;;;;;9.25;6.00;;;;;;;1.63;47.08;102693.75;4994743;28;124556;-60
2022/03/07 05:40:44;;;;;;;15.20;6.50;;;;;;;1.61;46.84;102695.44;4993329;28;108514;-60
2022/03/07 05:43:13;;;;;;;10.52;6.15;;;;;;;1.61;47.00;102695.44;4993684;28;109010;-60
2022/03/07 05:45:40;;;;;;;13.02;6.28;;;;;;;1.60;46.63;102704.13;4990620;28;123827;-60
2022/03/07 05:48:07;;;;;;;11.27;6.10;;;;;;;1.59;47.17;102706.72;4991343;28;123723;-59
2022/03/07 05:50:34;;;;;;;11.57;6.15;;;;;;;1.58;47.04;102705.81;4993012;28;108071;-60
2022/03/07 05:53:01;;;;;;;10.32;6.25;;;;;;;1.58;47.11;102703.19;4992708;28;109802;-60
2022/03/07 05:55:29;;;;;;;11.93;6.32;;;;;;;1.58;47.43;102711.03;4991045;28;124808;-60
2022/03/07 05:57:59;;;;;;;11.40;6.30;;;;;;;1.57;47.43;102719.72;4992076;28;122774;-60
2022/03/07 06:00:29;;;;;;;11.27;6.40;;;;;;;1.57;47.38;102729.31;4992651;28;109120;-60
2022/03/07 06:02:56;;;;;;;14.05;6.55;;;;;;;1.56;47.20;102728.41;4992186;28;108828;-59
2022/03/07 06:05:24;;;;;;;13.80;6.70;;;;;;;1.56;47.05;102738.84;4992212;28;123091;-60
2022/03/07 06:07:51;;;;;;;15.60;7.03;;;;;;;1.56;47.15;102738.84;4990202;28;124235;-60
2022/03/07 06:10:18;;;;;;;12.77;6.60;;;;;;;1.56;47.20;102741.44;4990079;28;110355;-60
2022/03/07 06:12:46;;;;;;;15.45;7.22;;;;;;;1.55;47.31;102739.69;4993782;28;109735;-60
2022/03/07 06:15:19;;;;;;;15.45;7.05;;;;;;;1.54;47.36;102745.75;4990991;28;123892;-60
2022/03/07 06:17:51;;;;;;;15.98;7.45;;;;;;;1.52;47.15;102748.31;4991908;28;123884;-59
2022/03/07 06:20:19;;;;;;;15.90;7.05;;;;;;;1.52;47.40;102755.28;4991359;28;109648;-60
2022/03/07 06:22:47;;;;;;;16.98;7.97;;;;;;;1.51;47.38;102750.94;4993417;28;109062;-60
2022/03/07 06:25:15;;;;;;;18.90;7.43;;;;;;;1.50;47.24;102749.16;4993180;28;125239;-60
2022/03/07 06:27:42;;;;;;;15.93;8.10;;;;;;;1.49;47.55;102747.41;4991462;28;125226;-60
2022/03/07 06:30:10;;;;;;;16.45;7.82;;;;;;;1.48;47.20;102746.50;4975994;28;108440;-60
2022/03/07 06:32:38;;;;;;;19.67;7.65;;;;;;;1.48;47.38;102750.84;4992062;28;108983;-60
2022/03/07 06:35:09;;;;;;;19.92;7.68;;;;;;;1.47;47.12;102754.28;4990991;28;124115;-60
2022/03/07 06:37:37;;;;;;;14.98;7.18;;;;;;;1.49;47.48;102752.63;4991918;28;124470;-60
2022/03/07 06:40:05;;;;;;;15.23;7.85;;;;;;;1.49;47.50;102750.00;4993303;28;109455;-60
2022/03/07 06:42:32;;;;;;;15.45;7.10;;;;;;;1.50;47.74;102759.59;4991657;28;109339;-59
2022/03/07 06:44:59;;;;;;;12.77;6.93;;;;;;;1.50;47.58;102759.59;4991868;28;124460;-59
2022/03/07 06:47:26;;;;;;;15.57;7.15;;;;;;;1.51;47.43;102756.16;4989297;28;124262;-60
2022/03/07 06:49:57;;;;;;;15.02;7.85;;;;;;;1.53;47.54;102764.91;4991410;28;109547;-60
2022/03/07 06:52:25;;;;;;;16.30;7.50;;;;;;;1.55;47.70;102766.69;4993039;28;108563;-60
2022/03/07 06:54:52;;;;;;;13.82;7.30;;;;;;;1.57;47.72;102766.72;4990445;28;124202;-60
2022/03/07 06:57:21;;;;;;;13.75;7.72;;;;;;;1.59;47.89;102765.03;4990494;28;123899;-60
2022/03/07 06:59:50;;;;;;;14.43;7.55;;;;;;;1.60;47.49;102766.81;4989884;28;109846;-60
2022/03/07 07:02:17;;;;;;;13.70;6.90;;;;;;;1.60;47.90;102761.59;4991072;28;110594;-60
2022/03/07 07:04:45;;;;;;;15.52;7.78;;;;;;;1.63;48.00;102763.38;4992234;28;122159;-60
2022/03/07 07:07:14;;;;;;;15.52;8.10;;;;;;;1.64;47.89;102758.19;4990408;28;123710;-60
2022/03/07 07:09:42;;;;;;;19.20;7.90;;;;;;;1.67;47.71;102763.47;4992205;28;108352;-60
2022/03/07 07:12:09;;;;;;;16.88;7.72;;;;;;;1.68;48.00;102760.03;4990567;28;109619;-60
2022/03/07 07:14:38;;;;;;;18.02;8.07;;;;;;;1.70;47.91;102758.31;4989050;28;123816;-60
2022/03/07 07:17:05;;;;;;;17.05;7.93;;;;;;;1.75;47.79;102758.41;4993086;28;124050;-60
2022/03/07 07:19:33;;;;;;;15.35;8.70;;;;;;;1.79;48.09;102759.38;4992272;28;108606;-60
2022/03/07 07:22:00;;;;;;;22.67;8.57;;;;;;;1.84;47.98;102760.38;4990230;28;108887;-60
2022/03/07 07:24:27;;;;;;;18.00;8.48;;;;;;;1.90;48.06;102750.03;4989593;28;124032;-60
2022/03/07 07:26:54;;;;;;;17.00;8.45;;;;;;;1.95;48.33;102753.63;4994482;28;124433;-59
2022/03/07 07:29:22;;;;;;;15.15;8.45;;;;;;;2.03;48.37;102754.69;4995554;28;108375;-59
2022/03/07 07:31:51;;;;;;;16.85;9.18;;;;;;;2.16;48.43;102752.34;4995903;28;109077;-60
2022/03/07 07:34:20;;;;;;;19.30;8.50;;;;;;;2.28;48.58;102752.56;4994862;28;123273;-60
2022/03/07 07:36:48;;;;;;;18.30;8.60;;;;;;;2.40;48.60;102752.81;4993963;28;124215;-60
2022/03/07 07:39:16;;;;;;;18.25;8.45;;;;;;;2.53;48.43;102760.06;4993817;28;109310;-60
2022/03/07 07:41:43;;;;;;;16.50;9.07;;;;;;;2.65;48.73;102758.53;4993481;28;109410;-60
2022/03/07 07:44:11;;;;;;;15.90;9.27;;;;;;;2.76;48.70;102757.00;5011512;27;123178;-60
2022/03/07 07:46:38;;;;;;;16.83;9.35;;;;;;;2.86;48.68;102758.94;4995373;28;124077;-61
2022/03/07 07:49:05;;;;;;;16.55;9.00;;;;;;;2.97;48.58;102756.47;4993292;28;110276;-60
2022/03/07 07:51:33;;;;;;;16.92;9.60;;;;;;;3.08;48.77;102759.28;4993804;28;110263;-60
2022/03/07 07:54:00;;;;;;;20.35;9.77;;;;;;;3.19;48.98;102757.75;4995195;28;124230;-61
2022/03/07 07:56:29;;;;;;;16.42;9.15;;;;;;;3.31;49.04;102763.19;4993076;28;124854;-60
2022/03/07 07:58:56;;;;;;;15.43;7.88;;;;;;;3.42;48.90;102757.22;4993085;28;109885;-61
2022/03/07 08:01:23;;;;;;;16.75;8.38;;;;;;;3.53;48.64;102758.28;4991320;28;109137;-61
2022/03/07 08:03:50;;;;;;;18.02;8.57;;;;;;;3.63;48.96;102764.53;4993681;28;124494;-61
2022/03/07 08:06:18;;;;;;;17.38;9.05;;;;;;;3.74;48.91;102769.94;4994907;28;122769;-61
2022/03/07 08:08:45;;;;;;;15.07;9.05;;;;;;;3.84;49.03;102770.09;4994963;28;109300;-61
2022/03/07 08:11:12;;;;;;;15.52;8.88;;;;;;;3.95;48.92;102762.34;4992429;28;108985;-61
2022/03/07 08:13:39;;;;;;;14.63;8.43;;;;;;;4.04;48.91;102767.72;4993827;28;124357;-61
2022/03/07 08:16:06;;;;;;;13.25;8.32;;;;;;;4.14;48.89;102767.84;4992506;28;124734;-61
2022/03/07 08:18:34;;;;;;;14.90;8.60;;;;;;;4.22;48.94;102771.44;4993669;28;108828;-61
2022/03/07 08:21:01;;;;;;;13.13;7.80;;;;;;;4.27;48.75;102775.88;4993744;28;109233;-61
2022/03/07 08:23:28;;;;;;;13.32;7.68;;;;;;;4.33;48.73;102775.06;4994383;28;124142;-61
2022/03/07 08:25:56;;;;;;;13.68;7.85;;;;;;;4.38;48.85;102765.50;4992751;28;124302;-61
2022/03/07 08:28:24;;;;;;;17.55;8.48;;;;;;;4.45;48.85;102772.59;4995507;28;110051;-61
2022/03/07 08:30:51;;;;;;;21.00;8.18;;;;;;;4.52;48.85;102770.03;4993105;28;109582;-61
2022/03/07 08:33:19;;;;;;;13.80;8.50;;;;;;;4.60;49.06;102773.66;4993707;28;123972;-61
2022/03/07 08:35:46;;;;;;;15.10;7.70;;;;;;;4.69;48.90;102779.00;4993486;28;123959;-61
2022/03/07 08:38:13;;;;;;;16.33;8.15;;;;;;;4.77;49.12;102777.31;4991757;28;110289;-62
2022/03/07 08:40:41;;;;;;;12.77;7.68;;;;;;;4.86;49.00;102772.16;4995000;28;109590;-62
2022/03/07 08:43:13;;;;;;;15.30;7.93;;;;;;;4.97;48.90;102768.75;4993663;28;124672;-61
2022/03/07 08:45:40;;;;;;;13.98;7.68;;;;;;;5.06;49.14;102774.97;4992851;28;124709;-62
2022/03/07 08:48:22;;;;;;;10.98;6.93;;;;;;;5.19;49.02;102781.22;4992484;28;109184;-62
2022/03/07 08:50:50;;;;;;;11.02;6.97;;;;;;;5.31;48.98;102771.66;4991818;28;109028;-62
2022/03/07 08:53:17;;;;;;;11.98;6.88;;;;;;;5.44;49.05;102765.63;4994080;28;124046;-62
2022/03/07 08:55:44;;;;;;;10.57;6.35;;;;;;;5.56;48.85;102771.00;4991183;28;124307;-62
2022/03/07 08:58:23;;;;;;;11.23;6.10;;;;;;;5.72;48.84;102771.09;4994041;28;108153;-63
2022/03/07 09:00:51;;;;;;;10.00;6.45;;;;;;;5.88;48.80;102770.31;4993351;28;108987;-63
2022/03/07 09:03:18;;;;;;;9.77;6.22;;;;;;;6.02;48.61;102771.28;4993663;28;124605;-63
2022/03/07 09:05:45;;;;;;;9.35;5.65;;;;;;;6.17;48.51;102764.34;4994336;28;124667;-63
2022/03/07 09:08:12;;;;;;;9.80;6.00;;;;;;;6.31;48.24;102762.66;4992674;28;109206;-63
2022/03/07 09:10:40;;;;;;;10.00;5.95;;;;;;;6.43;48.08;102757.44;4993812;28;108463;-63
2022/03/07 09:13:07;;;;;;;11.20;5.80;;;;;;;6.56;47.97;102757.47;4993033;28;124429;-63
2022/03/07 09:15:34;;;;;;;7.78;5.43;;;;;;;6.66;47.48;102756.59;4991631;28;124658;-63
2022/03/07 09:18:01;;;;;;;8.23;4.65;;;;;;;6.74;47.44;102757.53;4994418;28;109177;-63
2022/03/07 09:20:29;;;;;;;8.40;4.78;;;;;;;6.83;47.05;102752.25;4994612;28;109425;-63
2022/03/07 09:22:57;;;;;;;10.75;5.75;;;;;;;6.93;47.37;102749.63;4992735;28;124292;-64
2022/03/07 09:25:24;;;;;;;7.40;5.10;;;;;;;7.02;47.33;102750.50;4990963;28;124549;-64
2022/03/07 09:27:51;;;;;;;9.77;5.70;;;;;;;7.13;47.13;102750.50;4992645;28;110499;-64
2022/03/07 09:30:18;;;;;;;7.57;5.03;;;;;;;7.24;46.74;102757.56;4993366;28;110310;-64
2022/03/07 09:32:46;;;;;;;6.88;4.75;;;;;;;7.31;46.72;102748.75;4992938;28;123919;-65
2022/03/07 09:35:14;;;;;;;8.18;4.70;;;;;;;7.36;46.55;102747.84;4991588;28;124991;-64
2022/03/07 09:37:41;;;;;;;7.82;5.03;;;;;;;7.43;46.28;102747.88;4991503;28;108974;-64
2022/03/07 09:40:09;;;;;;;6.90;4.60;;;;;;;7.47;46.16;102750.50;4991253;28;109296;-64
2022/03/07 09:42:37;;;;;;;7.75;4.22;;;;;;;7.51;46.21;102752.25;4992035;28;124819;-64
2022/03/07 09:45:09;;;;;;;7.88;4.97;;;;;;;7.57;45.98;102736.44;4991616;28;124772;-64
2022/03/07 09:47:40;;;;;;;8.68;4.50;;;;;;;7.67;45.76;102732.00;4992868;28;108279;-64
2022/03/07 09:50:09;;;;;;;7.10;4.18;;;;;;;7.78;45.61;102729.34;4990694;28;109025;-64
2022/03/07 09:52:38;;;;;;;7.45;4.43;;;;;;;7.88;45.65;102730.19;4991345;28;124023;-64
2022/03/07 09:55:07;;;;;;;6.70;4.30;;;;;;;7.95;45.55;102726.66;4992889;28;124008;-65
2022/03/07 09:57:34;;;;;;;6.38;3.30;;;;;;;8.03;45.26;102729.25;4993792;28;109297;-64
2022/03/07 10:00:01;;;;;;;6.07;4.18;;;;;;;8.09;44.99;102723.94;4993704;28;109150;-64
2022/03/07 10:02:33;;;;;;;4.75;3.30;;;;;;;8.13;44.86;102723.03;4993996;28;124786;-64
2022/03/07 10:05:03;;;;;;;8.30;3.60;;;;;;;8.20;44.69;102727.41;4992075;28;124203;-64
2022/03/07 10:07:30;;;;;;;6.38;3.50;;;;;;;8.25;44.64;102725.66;4993072;28;109708;-64
2022/03/07 10:10:08;;;;;;;6.93;3.63;;;;;;;8.32;44.54;102722.06;4993198;28;109410;-64
2022/03/07 10:12:51;;;;;;;4.90;3.28;;;;;;;8.38;44.43;102732.63;4992008;28;123227;-64
2022/03/07 10:15:21;;;;;;;5.75;3.38;;;;;;;8.44;44.68;102721.16;4992111;28;124896;-64
2022/03/07 10:17:51;;;;;;;5.40;3.38;;;;;;;8.50;44.19;102721.13;4990712;28;110114;-64
2022/03/07 10:20:24;;;;;;;5.75;3.38;;;;;;;8.58;44.24;102719.31;4991425;28;109777;-62
2022/03/07 10:22:59;;;;;;;4.80;3.25;;;;;;;8.64;43.63;102718.38;4992667;28;124338;-63
2022/03/07 10:25:32;;;;;;;6.40;3.40;;;;;;;8.65;43.71;102709.59;4990868;28;124105;-63
2022/03/07 10:28:01;;;;;;;6.32;3.80;;;;;;;8.70;43.73;102707.81;4991085;28;110409;-63
2022/03/07 10:30:31;;;;;;;5.10;3.47;;;;;;;8.81;43.57;102704.19;4992074;28;109841;-62
2022/03/07 10:33:01;;;;;;;6.72;3.42;;;;;;;8.87;43.75;102704.13;4992304;28;123925;-62
2022/03/07 10:35:35;;;;;;;5.43;3.30;;;;;;;8.89;43.23;102700.59;4993441;28;124937;-62
2022/03/07 10:38:03;;;;;;;5.72;3.30;;;;;;;8.91;43.27;102700.56;4990913;28;109773;-62
2022/03/07 10:40:34;;;;;;;7.15;3.60;;;;;;;8.96;43.11;102704.06;4991722;28;108854;-62
2022/03/07 10:43:04;;;;;;;5.90;3.30;;;;;;;9.00;43.38;102695.22;4991352;28;124338;-62
2022/03/07 10:45:42;;;;;;;5.85;3.85;;;;;;;9.06;42.92;102695.19;4992751;28;123882;-62
2022/03/07 10:48:09;;;;;;;5.65;3.63;;;;;;;9.11;43.08;102693.34;4990598;28;109539;-62
2022/03/07 10:50:37;;;;;;;6.63;3.72;;;;;;;9.14;42.48;102687.19;4989983;28;109077;-62
2022/03/07 10:53:06;;;;;;;5.20;3.50;;;;;;;9.14;42.55;102693.34;4991468;28;124278;-62
2022/03/07 10:55:34;;;;;;;6.38;3.78;;;;;;;9.21;42.75;102693.25;4992212;28;124228;-62
2022/03/07 10:58:13;;;;;;;5.43;3.88;;;;;;;9.27;42.97;102682.66;4989249;28;109086;-62
2022/03/07 11:00:49;;;;;;;7.07;3.75;;;;;;;9.34;42.49;102673.75;4994400;28;107915;-62
2022/03/07 11:03:24;;;;;;;5.55;3.50;;;;;;;9.40;42.42;102673.69;4995217;28;123059;-62
2022/03/07 11:05:52;;;;;;;5.50;3.33;;;;;;;9.50;42.77;102664.75;4993587;28;124237;-62
2022/03/07 11:08:20;;;;;;;6.32;3.55;;;;;;;9.59;42.77;102668.19;4995375;28;109321;-62
2022/03/07 11:10:53;;;;;;;6.15;3.42;;;;;;;9.65;42.29;102657.56;4995037;28;109585;-62
2022/03/07 11:13:28;;;;;;;7.10;3.45;;;;;;;9.66;41.70;102664.56;4995057;28;125135;-62
2022/03/07 11:16:01;;;;;;;5.70;3.45;;;;;;;9.64;41.80;102651.34;4994810;28;124625;-62
2022/03/07 11:18:30;;;;;;;5.70;3.85;;;;;;;9.66;41.97;102648.69;4994065;28;108904;-62
2022/03/07 11:20:59;;;;;;;5.10;3.28;;;;;;;9.69;41.98;102638.09;4995192;28;107730;-62
2022/03/07 11:23:26;;;;;;;6.38;4.18;;;;;;;9.75;42.02;102643.31;4995057;28;122966;-62
2022/03/07 11:25:56;;;;;;;5.75;3.50;;;;;;;9.74;41.13;102631.84;4994282;28;124140;-61
2022/03/07 11:28:28;;;;;;;5.90;3.67;;;;;;;9.72;41.17;102632.78;4995736;28;108459;-61